Time;durP1;ratioP1;P1;durP2;ratioP2;P2;SDS_P1;SDS_P2;PMS_P1;PMS_P2;Temp;Humidity;BMP_temperature;BMP_pressure;BME280_temperature;BME280_humidity;BME280_pressure;Samples;Min_cycle;Max_cycle;Signal;HPM_P1;HPM_P2
2023/06/08 05:25:58;;;;;;;;;;;;;;;;;;;;;
2023/06/08 05:31:43;;;;;;;5.47;2.80;;;;;;;;;;6115207;23;20016;-84
2023/06/08 05:37:02;;;;;;;5.68;2.80;;;;;;;;;;6195898;22;20437;-84
2023/06/08 16:05:29;;;;;;;7.07;3.72;;;;;;;;;;6194342;22;20079;-88
2023/06/08 16:07:56;;;;;;;5.85;3.50;;;;;;;;;;6189223;23;20024;-85
2023/06/08 16:10:25;;;;;;;7.15;3.90;;;;;;;;;;6215739;23;20397;-84
2023/06/08 16:12:58;;;;;;;7.65;3.20;;;;;;;;;;6190529;23;20008;-85
2023/06/08 16:15:24;;;;;;;6.43;3.42;;;;;;;;;;6215815;23;20004;-84
2023/06/08 16:17:50;;;;;;;7.60;3.50;;;;;;;;;;6188286;23;20409;-83
2023/06/08 16:20:18;;;;;;;7.60;3.47;;;;;;;;;;6216953;23;20016;-83
2023/06/08 16:23:03;;;;;;;6.45;3.45;;;;;;;;;;6123399;23;20069;-84
2023/06/08 16:25:29;;;;;;;10.77;3.72;;;;;;;;;;6101243;23;20018;-84
2023/06/08 16:27:56;;;;;;;8.27;3.33;;;;;;;;;;6122747;23;20042;-85
2023/06/08 16:30:36;;;;;;;5.88;3.15;;;;;;;;;;6099699;23;20014;-85
2023/06/08 16:33:03;;;;;;;7.32;3.50;;;;;;;;;;6096439;23;20108;-84
2023/06/08 16:35:30;;;;;;;8.27;4.15;;;;;;;;;;6121676;23;20919;-82
2023/06/08 16:37:56;;;;;;;5.28;3.47;;;;;;;;;;6098749;23;20254;-83
2023/06/08 16:40:22;;;;;;;8.05;3.80;;;;;;;;;;6125457;23;20093;-84
2023/06/08 16:42:48;;;;;;;8.20;3.90;;;;;;;;;;6126343;23;20045;-84
2023/06/08 16:45:15;;;;;;;5.13;3.13;;;;;;;;;;6125684;23;20013;-83
2023/06/08 16:47:41;;;;;;;8.18;3.70;;;;;;;;;;6158164;23;20008;-85
2023/06/08 16:50:08;;;;;;;7.35;4.07;;;;;;;;;;6217119;23;20012;-82
2023/06/08 16:52:35;;;;;;;6.35;3.50;;;;;;;;;;6190501;23;20028;-84
2023/06/08 16:55:02;;;;;;;4.75;3.22;;;;;;;;;;6216402;23;20389;-84
2023/06/08 16:57:31;;;;;;;7.03;3.47;;;;;;;;;;6217147;23;20001;-84
2023/06/08 17:02:44;;;;;;;8.05;4.70;;;;;;;;;;6168943;22;20060;-84
2023/06/08 17:05:23;;;;;;;12.52;5.10;;;;;;;;;;6178940;23;20009;-85
2023/06/08 17:07:50;;;;;;;10.20;5.00;;;;;;;;;;6182907;23;20693;-85
2023/06/08 17:10:16;;;;;;;8.40;4.90;;;;;;;;;;6154817;23;20024;-84
2023/06/08 17:13:05;;;;;;;11.43;5.35;;;;;;;;;;6155122;23;20013;-82
2023/06/08 17:15:31;;;;;;;8.15;4.82;;;;;;;;;;6154784;23;20020;-86
2023/06/08 17:17:57;;;;;;;11.65;5.85;;;;;;;;;;6181892;23;20013;-85
2023/06/08 17:20:23;;;;;;;8.25;5.35;;;;;;;;;;6155142;23;20052;-82
2023/06/08 17:22:49;;;;;;;9.63;6.00;;;;;;;;;;6182128;23;20053;-82
2023/06/08 17:25:15;;;;;;;8.65;5.28;;;;;;;;;;6182197;23;20015;-83
2023/06/08 17:27:41;;;;;;;10.57;4.93;;;;;;;;;;6181508;23;20013;-83
2023/06/08 17:30:08;;;;;;;10.02;5.28;;;;;;;;;;6181519;23;20421;-82
2023/06/08 17:32:34;;;;;;;8.45;5.63;;;;;;;;;;6181904;23;20012;-83
2023/06/08 17:35:00;;;;;;;8.68;4.85;;;;;;;;;;6181715;23;20013;-83
2023/06/08 17:37:26;;;;;;;8.10;5.60;;;;;;;;;;6181916;23;20013;-83
2023/06/08 17:39:52;;;;;;;7.50;4.85;;;;;;;;;;6155382;23;20017;-81
2023/06/08 17:42:18;;;;;;;9.38;5.22;;;;;;;;;;6182005;23;20056;-82
2023/06/08 17:44:44;;;;;;;10.30;5.35;;;;;;;;;;6181729;23;20071;-82
2023/06/08 17:47:10;;;;;;;9.15;4.82;;;;;;;;;;6154880;23;20016;-84
2023/06/08 17:49:38;;;;;;;9.20;5.60;;;;;;;;;;6154444;23;20021;-83
2023/06/08 17:52:05;;;;;;;10.05;5.10;;;;;;;;;;6154042;23;20063;-82
2023/06/08 17:54:31;;;;;;;9.35;5.90;;;;;;;;;;6181161;23;20094;-82
2023/06/08 17:56:57;;;;;;;10.20;6.00;;;;;;;;;;6181881;23;20108;-83
2023/06/08 17:59:23;;;;;;;8.15;5.47;;;;;;;;;;6181898;23;20005;-82
2023/06/08 18:01:49;;;;;;;11.45;5.20;;;;;;;;;;6181157;23;20492;-83
2023/06/08 18:04:15;;;;;;;8.80;5.28;;;;;;;;;;6181371;23;20009;-83
2023/06/08 18:06:41;;;;;;;10.93;5.82;;;;;;;;;;6182134;23;20036;-83
2023/06/08 18:09:08;;;;;;;9.10;5.50;;;;;;;;;;6154412;23;20018;-82
2023/06/08 18:11:34;;;;;;;10.50;5.82;;;;;;;;;;6154986;23;20588;-82
2023/06/08 18:14:00;;;;;;;10.43;6.53;;;;;;;;;;6154507;23;20064;-81
2023/06/08 18:16:27;;;;;;;9.68;5.97;;;;;;;;;;6153946;23;20441;-83
2023/06/08 18:18:53;;;;;;;13.25;5.80;;;;;;;;;;6181141;23;20009;-82
2023/06/08 18:21:20;;;;;;;9.15;5.28;;;;;;;;;;6181320;23;20009;-84
2023/06/08 18:23:46;;;;;;;8.77;5.65;;;;;;;;;;6181072;23;20214;-86
2023/06/08 18:26:13;;;;;;;9.05;6.45;;;;;;;;;;6181546;23;20009;-84
2023/06/08 18:28:39;;;;;;;12.77;6.68;;;;;;;;;;6155349;23;20023;-85
2023/06/08 18:31:05;;;;;;;10.55;6.60;;;;;;;;;;6181066;23;20083;-83
2023/06/08 18:33:31;;;;;;;14.10;6.53;;;;;;;;;;6180783;23;20482;-82
2023/06/08 18:35:57;;;;;;;10.65;6.45;;;;;;;;;;6181189;23;20079;-83
2023/06/08 18:38:23;;;;;;;12.73;7.10;;;;;;;;;;6153914;23;20043;-83
2023/06/08 18:40:49;;;;;;;11.65;6.90;;;;;;;;;;6154372;23;20024;-84
2023/06/08 18:43:15;;;;;;;10.50;6.50;;;;;;;;;;6154479;23;20009;-82
2023/06/08 18:45:41;;;;;;;10.13;6.20;;;;;;;;;;6153185;23;20020;-83
